sensor_id;sensor_type;location;lat;lon;timestamp;P1;P2;P0
64631;PMS5003;58358;50.936;0.246;2023-03-31T00:01:37;6;5;
64631;PMS5003;58358;50.936;0.246;2023-03-31T00:04:02;6;5;
64631;PMS5003;58358;50.936;0.246;2023-03-31T00:06:28;7;6;
64631;PMS5003;58358;50.936;0.246;2023-03-31T00:08:54;5;3;
64631;PMS5003;58358;50.936;0.246;2023-03-31T00:11:20;7;4;
64631;PMS5003;58358;50.936;0.246;2023-03-31T00:13:45;7;7;
64631;PMS5003;58358;50.936;0.246;2023-03-31T00:16:11;7;6;
64631;PMS5003;58358;50.936;0.246;2023-03-31T00:18:36;7;5;
64631;PMS5003;58358;50.936;0.246;2023-03-31T00:21:06;8;6;
64631;PMS5003;58358;50.936;0.246;2023-03-31T00:23:27;5;5;
64631;PMS5003;58358;50.936;0.246;2023-03-31T00:25:53;8;6;
64631;PMS5003;58358;50.936;0.246;2023-03-31T00:28:19;8;8;
64631;PMS5003;58358;50.936;0.246;2023-03-31T00:30:45;7;7;
64631;PMS5003;58358;50.936;0.246;2023-03-31T00:33:10;9;7;
64631;PMS5003;58358;50.936;0.246;2023-03-31T00:35:36;8;7;
64631;PMS5003;58358;50.936;0.246;2023-03-31T00:38:02;6;6;
64631;PMS5003;58358;50.936;0.246;2023-03-31T00:40:27;8;6;
64631;PMS5003;58358;50.936;0.246;2023-03-31T00:42:53;11;10;
64631;PMS5003;58358;50.936;0.246;2023-03-31T00:45:24;8;7;
64631;PMS5003;58358;50.936;0.246;2023-03-31T00:47:44;14;6;
64631;PMS5003;58358;50.936;0.246;2023-03-31T00:50:12;11;10;
64631;PMS5003;58358;50.936;0.246;2023-03-31T00:52:35;6;6;
64631;PMS5003;58358;50.936;0.246;2023-03-31T00:55:02;11;8;
64631;PMS5003;58358;50.936;0.246;2023-03-31T00:57:26;11;10;
64631;PMS5003;58358;50.936;0.246;2023-03-31T00:59:52;9;9;
64631;PMS5003;58358;50.936;0.246;2023-03-31T01:02:18;10;7;
64631;PMS5003;58358;50.936;0.246;2023-03-31T01:04:45;8;8;
64631;PMS5003;58358;50.936;0.246;2023-03-31T01:07:13;8;8;
64631;PMS5003;58358;50.936;0.246;2023-03-31T01:09:34;10;8;
64631;PMS5003;58358;50.936;0.246;2023-03-31T01:12:02;12;9;
64631;PMS5003;58358;50.936;0.246;2023-03-31T01:14:26;11;9;
64631;PMS5003;58358;50.936;0.246;2023-03-31T01:16:51;13;10;
64631;PMS5003;58358;50.936;0.246;2023-03-31T01:19:19;11;8;
64631;PMS5003;58358;50.936;0.246;2023-03-31T01:21:53;10;8;
64631;PMS5003;58358;50.936;0.246;2023-03-31T01:26:36;15;10;
64631;PMS5003;58358;50.936;0.246;2023-03-31T01:29:00;12;8;
64631;PMS5003;58358;50.936;0.246;2023-03-31T01:31:37;11;10;
64631;PMS5003;58358;50.936;0.246;2023-03-31T01:41:13;15;10;
64631;PMS5003;58358;50.936;0.246;2023-03-31T01:43:32;14;11;
64631;PMS5003;58358;50.936;0.246;2023-03-31T01:45:57;9;7;
64631;PMS5003;58358;50.936;0.246;2023-03-31T01:48:24;14;11;
64631;PMS5003;58358;50.936;0.246;2023-03-31T01:50:49;15;9;
64631;PMS5003;58358;50.936;0.246;2023-03-31T01:53:15;11;9;
64631;PMS5003;58358;50.936;0.246;2023-03-31T01:55:38;9;8;
64631;PMS5003;58358;50.936;0.246;2023-03-31T01:58:05;9;7;
64631;PMS5003;58358;50.936;0.246;2023-03-31T02:00:29;13;10;
64631;PMS5003;58358;50.936;0.246;2023-03-31T02:02:55;14;9;
64631;PMS5003;58358;50.936;0.246;2023-03-31T02:05:21;10;9;
64631;PMS5003;58358;50.936;0.246;2023-03-31T02:07:46;13;9;
64631;PMS5003;58358;50.936;0.246;2023-03-31T02:10:11;8;8;
64631;PMS5003;58358;50.936;0.246;2023-03-31T02:12:37;13;11;
64631;PMS5003;58358;50.936;0.246;2023-03-31T02:15:03;13;10;
64631;PMS5003;58358;50.936;0.246;2023-03-31T02:17:27;8;7;
64631;PMS5003;58358;50.936;0.246;2023-03-31T02:19:53;14;12;
64631;PMS5003;58358;50.936;0.246;2023-03-31T02:22:18;9;7;
64631;PMS5003;58358;50.936;0.246;2023-03-31T02:24:43;10;9;
64631;PMS5003;58358;50.936;0.246;2023-03-31T02:27:10;11;8;
64631;PMS5003;58358;50.936;0.246;2023-03-31T02:29:34;11;8;
64631;PMS5003;58358;50.936;0.246;2023-03-31T02:32:00;13;11;
64631;PMS5003;58358;50.936;0.246;2023-03-31T02:34:25;13;5;
64631;PMS5003;58358;50.936;0.246;2023-03-31T02:36:50;15;13;
64631;PMS5003;58358;50.936;0.246;2023-03-31T02:39:16;13;8;
64631;PMS5003;58358;50.936;0.246;2023-03-31T02:41:40;18;10;
64631;PMS5003;58358;50.936;0.246;2023-03-31T02:44:07;16;11;
64631;PMS5003;58358;50.936;0.246;2023-03-31T02:46:32;11;11;
64631;PMS5003;58358;50.936;0.246;2023-03-31T02:48:58;15;13;
64631;PMS5003;58358;50.936;0.246;2023-03-31T02:53:52;25;17;
64631;PMS5003;58358;50.936;0.246;2023-03-31T02:56:17;11;10;
64631;PMS5003;58358;50.936;0.246;2023-03-31T02:58:42;11;8;
64631;PMS5003;58358;50.936;0.246;2023-03-31T03:01:09;13;9;
64631;PMS5003;58358;50.936;0.246;2023-03-31T03:03:33;23;17;
64631;PMS5003;58358;50.936;0.246;2023-03-31T03:05:57;18;12;
64631;PMS5003;58358;50.936;0.246;2023-03-31T03:08:23;13;10;
64631;PMS5003;58358;50.936;0.246;2023-03-31T03:10:48;16;11;
64631;PMS5003;58358;50.936;0.246;2023-03-31T03:13:14;16;11;
64631;PMS5003;58358;50.936;0.246;2023-03-31T03:15:38;17;13;
64631;PMS5003;58358;50.936;0.246;2023-03-31T03:18:02;19;13;
64631;PMS5003;58358;50.936;0.246;2023-03-31T03:20:27;19;17;
64631;PMS5003;58358;50.936;0.246;2023-03-31T03:22:52;21;16;
64631;PMS5003;58358;50.936;0.246;2023-03-31T03:25:18;18;14;
64631;PMS5003;58358;50.936;0.246;2023-03-31T03:27:44;19;14;
64631;PMS5003;58358;50.936;0.246;2023-03-31T03:30:10;21;17;
64631;PMS5003;58358;50.936;0.246;2023-03-31T03:32:35;17;14;
64631;PMS5003;58358;50.936;0.246;2023-03-31T03:35:02;18;17;
64631;PMS5003;58358;50.936;0.246;2023-03-31T03:37:27;14;8;
64631;PMS5003;58358;50.936;0.246;2023-03-31T03:39:52;15;10;
64631;PMS5003;58358;50.936;0.246;2023-03-31T03:42:18;18;13;
64631;PMS5003;58358;50.936;0.246;2023-03-31T03:44:43;25;18;
64631;PMS5003;58358;50.936;0.246;2023-03-31T03:47:09;11;9;
64631;PMS5003;58358;50.936;0.246;2023-03-31T03:49:34;18;13;
64631;PMS5003;58358;50.936;0.246;2023-03-31T03:52:00;15;9;
64631;PMS5003;58358;50.936;0.246;2023-03-31T03:54:25;21;15;
64631;PMS5003;58358;50.936;0.246;2023-03-31T03:56:50;13;9;
64631;PMS5003;58358;50.936;0.246;2023-03-31T03:59:16;23;16;
64631;PMS5003;58358;50.936;0.246;2023-03-31T04:01:41;16;13;
64631;PMS5003;58358;50.936;0.246;2023-03-31T04:04:07;23;13;
64631;PMS5003;58358;50.936;0.246;2023-03-31T04:06:33;19;11;
64631;PMS5003;58358;50.936;0.246;2023-03-31T04:08:58;18;15;
64631;PMS5003;58358;50.936;0.246;2023-03-31T04:11:23;18;11;
64631;PMS5003;58358;50.936;0.246;2023-03-31T04:13:49;20;14;
64631;PMS5003;58358;50.936;0.246;2023-03-31T04:16:14;19;12;
64631;PMS5003;58358;50.936;0.246;2023-03-31T04:18:40;14;10;
64631;PMS5003;58358;50.936;0.246;2023-03-31T04:21:06;18;13;
64631;PMS5003;58358;50.936;0.246;2023-03-31T04:23:31;12;9;
64631;PMS5003;58358;50.936;0.246;2023-03-31T04:25:56;11;8;
64631;PMS5003;58358;50.936;0.246;2023-03-31T04:28:22;12;10;
64631;PMS5003;58358;50.936;0.246;2023-03-31T04:30:47;24;14;
64631;PMS5003;58358;50.936;0.246;2023-03-31T04:33:13;18;13;
64631;PMS5003;58358;50.936;0.246;2023-03-31T04:35:38;21;8;
64631;PMS5003;58358;50.936;0.246;2023-03-31T04:38:03;19;13;
64631;PMS5003;58358;50.936;0.246;2023-03-31T04:40:28;14;12;
64631;PMS5003;58358;50.936;0.246;2023-03-31T04:42:54;13;9;
64631;PMS5003;58358;50.936;0.246;2023-03-31T04:45:19;18;13;
64631;PMS5003;58358;50.936;0.246;2023-03-31T04:47:44;16;9;
64631;PMS5003;58358;50.936;0.246;2023-03-31T04:50:10;17;11;
64631;PMS5003;58358;50.936;0.246;2023-03-31T04:52:36;17;14;
64631;PMS5003;58358;50.936;0.246;2023-03-31T04:55:04;18;12;
64631;PMS5003;58358;50.936;0.246;2023-03-31T04:57:27;9;8;
64631;PMS5003;58358;50.936;0.246;2023-03-31T04:59:52;20;16;
64631;PMS5003;58358;50.936;0.246;2023-03-31T05:02:18;18;11;
64631;PMS5003;58358;50.936;0.246;2023-03-31T05:04:43;14;8;
64631;PMS5003;58358;50.936;0.246;2023-03-31T05:07:08;18;13;
64631;PMS5003;58358;50.936;0.246;2023-03-31T05:09:34;15;11;
64631;PMS5003;58358;50.936;0.246;2023-03-31T05:11:59;14;11;
64631;PMS5003;58358;50.936;0.246;2023-03-31T05:14:24;12;7;
64631;PMS5003;58358;50.936;0.246;2023-03-31T05:16:50;14;7;
64631;PMS5003;58358;50.936;0.246;2023-03-31T05:19:15;14;10;
64631;PMS5003;58358;50.936;0.246;2023-03-31T05:21:41;14;9;
64631;PMS5003;58358;50.936;0.246;2023-03-31T05:24:07;16;9;
64631;PMS5003;58358;50.936;0.246;2023-03-31T05:26:32;12;11;
64631;PMS5003;58358;50.936;0.246;2023-03-31T05:28:57;23;13;
64631;PMS5003;58358;50.936;0.246;2023-03-31T05:31:23;16;13;
64631;PMS5003;58358;50.936;0.246;2023-03-31T05:33:49;16;11;
64631;PMS5003;58358;50.936;0.246;2023-03-31T05:36:15;16;14;
64631;PMS5003;58358;50.936;0.246;2023-03-31T05:38:39;16;11;
64631;PMS5003;58358;50.936;0.246;2023-03-31T05:41:04;20;12;
64631;PMS5003;58358;50.936;0.246;2023-03-31T05:43:29;16;10;
64631;PMS5003;58358;50.936;0.246;2023-03-31T05:45:55;22;14;
64631;PMS5003;58358;50.936;0.246;2023-03-31T05:48:20;10;9;
64631;PMS5003;58358;50.936;0.246;2023-03-31T05:50:46;14;11;
64631;PMS5003;58358;50.936;0.246;2023-03-31T05:53:11;17;12;
64631;PMS5003;58358;50.936;0.246;2023-03-31T05:55:37;18;15;
64631;PMS5003;58358;50.936;0.246;2023-03-31T05:58:02;12;12;
64631;PMS5003;58358;50.936;0.246;2023-03-31T06:00:28;12;11;
64631;PMS5003;58358;50.936;0.246;2023-03-31T06:02:53;23;15;
64631;PMS5003;58358;50.936;0.246;2023-03-31T06:05:19;19;12;
64631;PMS5003;58358;50.936;0.246;2023-03-31T06:07:44;17;13;
64631;PMS5003;58358;50.936;0.246;2023-03-31T06:10:10;22;12;
64631;PMS5003;58358;50.936;0.246;2023-03-31T06:12:35;13;10;
64631;PMS5003;58358;50.936;0.246;2023-03-31T06:15:00;13;12;
64631;PMS5003;58358;50.936;0.246;2023-03-31T06:17:26;12;10;
64631;PMS5003;58358;50.936;0.246;2023-03-31T06:19:51;15;12;
64631;PMS5003;58358;50.936;0.246;2023-03-31T06:22:16;16;10;
64631;PMS5003;58358;50.936;0.246;2023-03-31T06:24:42;16;9;
64631;PMS5003;58358;50.936;0.246;2023-03-31T06:27:07;11;11;
64631;PMS5003;58358;50.936;0.246;2023-03-31T06:29:33;21;13;
64631;PMS5003;58358;50.936;0.246;2023-03-31T06:31:58;12;11;
64631;PMS5003;58358;50.936;0.246;2023-03-31T06:34:23;11;11;
64631;PMS5003;58358;50.936;0.246;2023-03-31T06:36:49;16;12;
64631;PMS5003;58358;50.936;0.246;2023-03-31T06:39:14;13;11;
64631;PMS5003;58358;50.936;0.246;2023-03-31T06:41:40;18;12;
64631;PMS5003;58358;50.936;0.246;2023-03-31T06:44:05;12;12;
64631;PMS5003;58358;50.936;0.246;2023-03-31T06:46:31;12;9;
64631;PMS5003;58358;50.936;0.246;2023-03-31T06:48:56;17;13;
64631;PMS5003;58358;50.936;0.246;2023-03-31T06:51:21;18;13;
64631;PMS5003;58358;50.936;0.246;2023-03-31T06:53:47;16;10;
64631;PMS5003;58358;50.936;0.246;2023-03-31T06:56:12;18;11;
64631;PMS5003;58358;50.936;0.246;2023-03-31T06:58:38;17;12;
64631;PMS5003;58358;50.936;0.246;2023-03-31T07:01:04;13;11;
64631;PMS5003;58358;50.936;0.246;2023-03-31T07:03:29;11;8;
64631;PMS5003;58358;50.936;0.246;2023-03-31T07:05:55;17;11;
64631;PMS5003;58358;50.936;0.246;2023-03-31T07:08:20;14;11;
64631;PMS5003;58358;50.936;0.246;2023-03-31T07:10:45;19;15;
64631;PMS5003;58358;50.936;0.246;2023-03-31T07:13:11;14;11;
64631;PMS5003;58358;50.936;0.246;2023-03-31T07:15:36;22;15;
64631;PMS5003;58358;50.936;0.246;2023-03-31T07:18:02;30;22;
64631;PMS5003;58358;50.936;0.246;2023-03-31T07:20:28;12;9;
64631;PMS5003;58358;50.936;0.246;2023-03-31T07:22:53;19;14;
64631;PMS5003;58358;50.936;0.246;2023-03-31T07:25:18;17;11;
64631;PMS5003;58358;50.936;0.246;2023-03-31T07:27:44;18;13;
64631;PMS5003;58358;50.936;0.246;2023-03-31T07:30:10;13;10;
64631;PMS5003;58358;50.936;0.246;2023-03-31T07:32:35;22;14;
64631;PMS5003;58358;50.936;0.246;2023-03-31T07:35:01;15;9;
64631;PMS5003;58358;50.936;0.246;2023-03-31T07:37:26;26;19;
64631;PMS5003;58358;50.936;0.246;2023-03-31T07:39:52;11;8;
64631;PMS5003;58358;50.936;0.246;2023-03-31T07:42:18;17;12;
64631;PMS5003;58358;50.936;0.246;2023-03-31T07:44:43;13;10;
64631;PMS5003;58358;50.936;0.246;2023-03-31T07:47:09;19;13;
64631;PMS5003;58358;50.936;0.246;2023-03-31T07:49:34;15;13;
64631;PMS5003;58358;50.936;0.246;2023-03-31T07:51:59;13;11;
64631;PMS5003;58358;50.936;0.246;2023-03-31T07:54:25;11;9;
64631;PMS5003;58358;50.936;0.246;2023-03-31T07:56:51;12;7;
64631;PMS5003;58358;50.936;0.246;2023-03-31T07:59:16;13;11;
64631;PMS5003;58358;50.936;0.246;2023-03-31T08:01:42;15;10;
64631;PMS5003;58358;50.936;0.246;2023-03-31T08:04:08;11;10;
64631;PMS5003;58358;50.936;0.246;2023-03-31T08:06:33;11;10;
64631;PMS5003;58358;50.936;0.246;2023-03-31T08:08:58;14;9;
64631;PMS5003;58358;50.936;0.246;2023-03-31T08:11:23;14;10;
64631;PMS5003;58358;50.936;0.246;2023-03-31T08:13:49;13;9;
64631;PMS5003;58358;50.936;0.246;2023-03-31T08:16:15;9;6;
64631;PMS5003;58358;50.936;0.246;2023-03-31T08:18:40;10;9;
64631;PMS5003;58358;50.936;0.246;2023-03-31T08:21:06;11;10;
64631;PMS5003;58358;50.936;0.246;2023-03-31T08:23:31;20;10;
64631;PMS5003;58358;50.936;0.246;2023-03-31T08:28:22;12;8;
64631;PMS5003;58358;50.936;0.246;2023-03-31T08:30:47;18;13;
64631;PMS5003;58358;50.936;0.246;2023-03-31T08:33:12;12;9;
64631;PMS5003;58358;50.936;0.246;2023-03-31T08:35:38;21;17;
64631;PMS5003;58358;50.936;0.246;2023-03-31T08:38:04;13;12;
64631;PMS5003;58358;50.936;0.246;2023-03-31T08:40:29;18;12;
64631;PMS5003;58358;50.936;0.246;2023-03-31T08:42:55;15;13;
64631;PMS5003;58358;50.936;0.246;2023-03-31T08:45:20;20;12;
64631;PMS5003;58358;50.936;0.246;2023-03-31T08:47:46;19;9;
64631;PMS5003;58358;50.936;0.246;2023-03-31T08:50:12;16;12;
64631;PMS5003;58358;50.936;0.246;2023-03-31T08:52:38;11;9;
64631;PMS5003;58358;50.936;0.246;2023-03-31T08:55:05;11;8;
64631;PMS5003;58358;50.936;0.246;2023-03-31T08:57:29;18;14;
64631;PMS5003;58358;50.936;0.246;2023-03-31T08:59:53;15;8;
64631;PMS5003;58358;50.936;0.246;2023-03-31T09:02:20;14;12;
64631;PMS5003;58358;50.936;0.246;2023-03-31T09:07:11;11;7;
64631;PMS5003;58358;50.936;0.246;2023-03-31T09:09:36;13;8;
64631;PMS5003;58358;50.936;0.246;2023-03-31T09:12:01;13;10;
64631;PMS5003;58358;50.936;0.246;2023-03-31T09:14:29;9;5;
64631;PMS5003;58358;50.936;0.246;2023-03-31T09:16:53;14;13;
64631;PMS5003;58358;50.936;0.246;2023-03-31T09:19:19;20;8;
64631;PMS5003;58358;50.936;0.246;2023-03-31T09:21:42;14;10;
64631;PMS5003;58358;50.936;0.246;2023-03-31T09:24:10;14;11;
64631;PMS5003;58358;50.936;0.246;2023-03-31T09:26:35;13;11;
64631;PMS5003;58358;50.936;0.246;2023-03-31T09:28:58;20;13;
64631;PMS5003;58358;50.936;0.246;2023-03-31T09:31:24;13;10;
64631;PMS5003;58358;50.936;0.246;2023-03-31T09:33:50;13;10;
64631;PMS5003;58358;50.936;0.246;2023-03-31T09:36:16;20;11;
64631;PMS5003;58358;50.936;0.246;2023-03-31T09:38:41;13;8;
64631;PMS5003;58358;50.936;0.246;2023-03-31T09:41:06;17;12;
64631;PMS5003;58358;50.936;0.246;2023-03-31T09:43:32;16;12;
64631;PMS5003;58358;50.936;0.246;2023-03-31T09:45:57;12;10;
64631;PMS5003;58358;50.936;0.246;2023-03-31T09:48:24;11;8;
64631;PMS5003;58358;50.936;0.246;2023-03-31T09:50:49;19;11;
64631;PMS5003;58358;50.936;0.246;2023-03-31T09:53:14;21;13;
64631;PMS5003;58358;50.936;0.246;2023-03-31T09:55:40;13;11;
64631;PMS5003;58358;50.936;0.246;2023-03-31T09:58:05;11;8;
64631;PMS5003;58358;50.936;0.246;2023-03-31T10:00:30;13;7;
64631;PMS5003;58358;50.936;0.246;2023-03-31T10:02:56;16;12;
64631;PMS5003;58358;50.936;0.246;2023-03-31T10:05:24;16;13;
64631;PMS5003;58358;50.936;0.246;2023-03-31T10:07:45;15;10;
64631;PMS5003;58358;50.936;0.246;2023-03-31T10:10:17;16;13;
64631;PMS5003;58358;50.936;0.246;2023-03-31T10:12:37;13;9;
64631;PMS5003;58358;50.936;0.246;2023-03-31T10:17:27;13;8;
64631;PMS5003;58358;50.936;0.246;2023-03-31T10:19:55;13;10;
64631;PMS5003;58358;50.936;0.246;2023-03-31T10:24:44;12;7;
64631;PMS5003;58358;50.936;0.246;2023-03-31T10:27:13;11;8;
64631;PMS5003;58358;50.936;0.246;2023-03-31T10:29:35;15;12;
64631;PMS5003;58358;50.936;0.246;2023-03-31T10:32:02;10;7;
64631;PMS5003;58358;50.936;0.246;2023-03-31T10:34:27;9;6;
64631;PMS5003;58358;50.936;0.246;2023-03-31T10:36:53;18;12;
64631;PMS5003;58358;50.936;0.246;2023-03-31T10:39:19;18;15;
64631;PMS5003;58358;50.936;0.246;2023-03-31T10:41:48;15;13;
64631;PMS5003;58358;50.936;0.246;2023-03-31T10:46:39;19;14;
64631;PMS5003;58358;50.936;0.246;2023-03-31T10:49:00;11;10;
64631;PMS5003;58358;50.936;0.246;2023-03-31T10:51:26;12;8;
64631;PMS5003;58358;50.936;0.246;2023-03-31T10:53:51;12;10;
64631;PMS5003;58358;50.936;0.246;2023-03-31T10:56:21;16;7;
64631;PMS5003;58358;50.936;0.246;2023-03-31T10:58:45;12;8;
64631;PMS5003;58358;50.936;0.246;2023-03-31T11:01:11;11;8;
64631;PMS5003;58358;50.936;0.246;2023-03-31T11:03:37;10;10;
64631;PMS5003;58358;50.936;0.246;2023-03-31T11:05:58;18;11;
64631;PMS5003;58358;50.936;0.246;2023-03-31T11:08:26;12;11;
64631;PMS5003;58358;50.936;0.246;2023-03-31T11:10:52;10;9;
64631;PMS5003;58358;50.936;0.246;2023-03-31T11:13:15;15;9;
64631;PMS5003;58358;50.936;0.246;2023-03-31T11:15:40;13;8;
64631;PMS5003;58358;50.936;0.246;2023-03-31T11:18:08;9;8;
64631;PMS5003;58358;50.936;0.246;2023-03-31T11:20:31;7;7;
64631;PMS5003;58358;50.936;0.246;2023-03-31T11:22:56;10;8;
64631;PMS5003;58358;50.936;0.246;2023-03-31T11:25:22;10;5;
64631;PMS5003;58358;50.936;0.246;2023-03-31T11:27:50;13;9;
64631;PMS5003;58358;50.936;0.246;2023-03-31T11:30:12;10;8;
64631;PMS5003;58358;50.936;0.246;2023-03-31T11:32:41;14;11;
64631;PMS5003;58358;50.936;0.246;2023-03-31T11:35:06;8;7;
64631;PMS5003;58358;50.936;0.246;2023-03-31T11:37:33;9;5;
64631;PMS5003;58358;50.936;0.246;2023-03-31T11:39:57;8;7;
64631;PMS5003;58358;50.936;0.246;2023-03-31T11:42:20;11;11;
64631;PMS5003;58358;50.936;0.246;2023-03-31T11:44:45;12;8;
64631;PMS5003;58358;50.936;0.246;2023-03-31T11:47:11;8;6;
64631;PMS5003;58358;50.936;0.246;2023-03-31T11:49:36;11;9;
64631;PMS5003;58358;50.936;0.246;2023-03-31T11:52:02;12;6;
64631;PMS5003;58358;50.936;0.246;2023-03-31T11:54:28;9;6;
64631;PMS5003;58358;50.936;0.246;2023-03-31T11:56:53;7;5;
64631;PMS5003;58358;50.936;0.246;2023-03-31T11:59:19;10;8;
64631;PMS5003;58358;50.936;0.246;2023-03-31T12:01:46;6;5;
64631;PMS5003;58358;50.936;0.246;2023-03-31T12:04:12;9;4;
64631;PMS5003;58358;50.936;0.246;2023-03-31T12:06:36;12;7;
64631;PMS5003;58358;50.936;0.246;2023-03-31T12:09:03;10;6;
64631;PMS5003;58358;50.936;0.246;2023-03-31T12:11:26;7;6;
64631;PMS5003;58358;50.936;0.246;2023-03-31T12:13:52;9;6;
64631;PMS5003;58358;50.936;0.246;2023-03-31T12:16:17;6;5;
64631;PMS5003;58358;50.936;0.246;2023-03-31T12:18:43;13;4;
64631;PMS5003;58358;50.936;0.246;2023-03-31T12:21:07;10;5;
64631;PMS5003;58358;50.936;0.246;2023-03-31T12:23:34;6;4;
64631;PMS5003;58358;50.936;0.246;2023-03-31T12:26:00;6;6;
64631;PMS5003;58358;50.936;0.246;2023-03-31T12:28:24;12;8;
64631;PMS5003;58358;50.936;0.246;2023-03-31T12:30:49;7;4;
64631;PMS5003;58358;50.936;0.246;2023-03-31T12:33:17;7;5;
64631;PMS5003;58358;50.936;0.246;2023-03-31T12:35:43;8;7;
64631;PMS5003;58358;50.936;0.246;2023-03-31T12:38:10;7;5;
64631;PMS5003;58358;50.936;0.246;2023-03-31T12:40:35;6;4;
64631;PMS5003;58358;50.936;0.246;2023-03-31T12:43:06;3;3;
64631;PMS5003;58358;50.936;0.246;2023-03-31T12:45:25;7;6;
64631;PMS5003;58358;50.936;0.246;2023-03-31T12:47:56;9;7;
64631;PMS5003;58358;50.936;0.246;2023-03-31T12:50:20;9;3;
64631;PMS5003;58358;50.936;0.246;2023-03-31T12:52:41;12;11;
64631;PMS5003;58358;50.936;0.246;2023-03-31T12:55:10;5;4;
64631;PMS5003;58358;50.936;0.246;2023-03-31T12:57:30;13;8;
64631;PMS5003;58358;50.936;0.246;2023-03-31T13:02:23;7;4;
64631;PMS5003;58358;50.936;0.246;2023-03-31T13:04:47;5;3;
64631;PMS5003;58358;50.936;0.246;2023-03-31T13:07:12;12;10;
64631;PMS5003;58358;50.936;0.246;2023-03-31T13:09:40;5;3;
64631;PMS5003;58358;50.936;0.246;2023-03-31T13:12:05;9;6;
64631;PMS5003;58358;50.936;0.246;2023-03-31T13:14:30;7;5;
64631;PMS5003;58358;50.936;0.246;2023-03-31T13:17:10;3;3;
64631;PMS5003;58358;50.936;0.246;2023-03-31T13:19:25;9;7;
64631;PMS5003;58358;50.936;0.246;2023-03-31T13:21:51;8;8;
64631;PMS5003;58358;50.936;0.246;2023-03-31T13:24:12;8;7;
64631;PMS5003;58358;50.936;0.246;2023-03-31T13:26:38;6;5;
64631;PMS5003;58358;50.936;0.246;2023-03-31T13:29:09;4;4;
64631;PMS5003;58358;50.936;0.246;2023-03-31T13:33:54;6;6;
64631;PMS5003;58358;50.936;0.246;2023-03-31T13:36:27;6;4;
64631;PMS5003;58358;50.936;0.246;2023-03-31T13:41:20;5;5;
64631;PMS5003;58358;50.936;0.246;2023-03-31T13:43:42;8;7;
64631;PMS5003;58358;50.936;0.246;2023-03-31T13:48:31;3;3;
64631;PMS5003;58358;50.936;0.246;2023-03-31T13:50:56;9;6;
64631;PMS5003;58358;50.936;0.246;2023-03-31T13:53:22;9;6;
64631;PMS5003;58358;50.936;0.246;2023-03-31T13:55:54;12;8;
64631;PMS5003;58358;50.936;0.246;2023-03-31T14:00:41;8;7;
64631;PMS5003;58358;50.936;0.246;2023-03-31T14:03:04;8;5;
64631;PMS5003;58358;50.936;0.246;2023-03-31T14:05:27;6;5;
64631;PMS5003;58358;50.936;0.246;2023-03-31T14:07:52;5;5;
64631;PMS5003;58358;50.936;0.246;2023-03-31T14:10:24;8;5;
64631;PMS5003;58358;50.936;0.246;2023-03-31T14:12:43;4;4;
64631;PMS5003;58358;50.936;0.246;2023-03-31T14:15:16;6;4;
64631;PMS5003;58358;50.936;0.246;2023-03-31T14:17:35;4;4;
64631;PMS5003;58358;50.936;0.246;2023-03-31T14:20:04;6;6;
64631;PMS5003;58358;50.936;0.246;2023-03-31T14:22:28;6;5;
64631;PMS5003;58358;50.936;0.246;2023-03-31T14:24:53;5;5;
64631;PMS5003;58358;50.936;0.246;2023-03-31T14:27:19;21;18;
64631;PMS5003;58358;50.936;0.246;2023-03-31T14:29:43;6;3;
64631;PMS5003;58358;50.936;0.246;2023-03-31T14:32:10;9;6;
64631;PMS5003;58358;50.936;0.246;2023-03-31T14:34:36;4;3;
64631;PMS5003;58358;50.936;0.246;2023-03-31T14:36:59;9;4;
64631;PMS5003;58358;50.936;0.246;2023-03-31T14:39:25;6;4;
64631;PMS5003;58358;50.936;0.246;2023-03-31T14:41:50;8;6;
64631;PMS5003;58358;50.936;0.246;2023-03-31T14:44:15;6;4;
64631;PMS5003;58358;50.936;0.246;2023-03-31T14:46:41;7;4;
64631;PMS5003;58358;50.936;0.246;2023-03-31T14:51:32;6;5;
64631;PMS5003;58358;50.936;0.246;2023-03-31T14:53:58;5;5;
64631;PMS5003;58358;50.936;0.246;2023-03-31T14:56:26;9;7;
64631;PMS5003;58358;50.936;0.246;2023-03-31T14:58:49;5;4;
64631;PMS5003;58358;50.936;0.246;2023-03-31T15:01:15;3;3;
64631;PMS5003;58358;50.936;0.246;2023-03-31T15:03:40;2;2;
64631;PMS5003;58358;50.936;0.246;2023-03-31T15:06:06;4;4;
64631;PMS5003;58358;50.936;0.246;2023-03-31T15:08:31;2;2;
64631;PMS5003;58358;50.936;0.246;2023-03-31T15:10:58;5;4;
64631;PMS5003;58358;50.936;0.246;2023-03-31T15:13:24;3;2;
64631;PMS5003;58358;50.936;0.246;2023-03-31T15:15:48;5;2;
64631;PMS5003;58358;50.936;0.246;2023-03-31T15:18:14;4;3;
64631;PMS5003;58358;50.936;0.246;2023-03-31T15:20:40;2;2;
64631;PMS5003;58358;50.936;0.246;2023-03-31T15:25:32;3;3;
64631;PMS5003;58358;50.936;0.246;2023-03-31T15:27:58;7;4;
64631;PMS5003;58358;50.936;0.246;2023-03-31T15:30:23;5;5;
64631;PMS5003;58358;50.936;0.246;2023-03-31T15:32:49;5;4;
64631;PMS5003;58358;50.936;0.246;2023-03-31T15:35:18;6;5;
64631;PMS5003;58358;50.936;0.246;2023-03-31T15:37:40;6;5;
64631;PMS5003;58358;50.936;0.246;2023-03-31T15:40:09;7;6;
64631;PMS5003;58358;50.936;0.246;2023-03-31T15:42:31;4;4;
64631;PMS5003;58358;50.936;0.246;2023-03-31T15:45:01;8;5;
64631;PMS5003;58358;50.936;0.246;2023-03-31T15:47:22;5;5;
64631;PMS5003;58358;50.936;0.246;2023-03-31T15:49:49;7;6;
64631;PMS5003;58358;50.936;0.246;2023-03-31T15:54:39;3;3;
64631;PMS5003;58358;50.936;0.246;2023-03-31T15:57:06;10;7;
64631;PMS5003;58358;50.936;0.246;2023-03-31T15:59:31;5;5;
64631;PMS5003;58358;50.936;0.246;2023-03-31T16:01:56;6;5;
64631;PMS5003;58358;50.936;0.246;2023-03-31T16:04:22;3;3;
64631;PMS5003;58358;50.936;0.246;2023-03-31T16:06:48;3;3;
64631;PMS5003;58358;50.936;0.246;2023-03-31T16:09:14;4;2;
64631;PMS5003;58358;50.936;0.246;2023-03-31T16:11:39;4;4;
64631;PMS5003;58358;50.936;0.246;2023-03-31T16:14:06;5;5;
64631;PMS5003;58358;50.936;0.246;2023-03-31T16:16:30;7;7;
64631;PMS5003;58358;50.936;0.246;2023-03-31T16:18:59;13;13;
64631;PMS5003;58358;50.936;0.246;2023-03-31T16:21:22;8;7;
64631;PMS5003;58358;50.936;0.246;2023-03-31T16:23:49;5;5;
64631;PMS5003;58358;50.936;0.246;2023-03-31T16:26:14;3;3;
64631;PMS5003;58358;50.936;0.246;2023-03-31T16:28:38;7;7;
64631;PMS5003;58358;50.936;0.246;2023-03-31T16:31:04;5;5;
64631;PMS5003;58358;50.936;0.246;2023-03-31T16:33:30;4;3;
64631;PMS5003;58358;50.936;0.246;2023-03-31T16:35:56;11;11;
64631;PMS5003;58358;50.936;0.246;2023-03-31T16:38:21;5;4;
64631;PMS5003;58358;50.936;0.246;2023-03-31T16:40:47;1;1;
64631;PMS5003;58358;50.936;0.246;2023-03-31T16:43:12;7;7;
64631;PMS5003;58358;50.936;0.246;2023-03-31T16:45:37;4;4;
64631;PMS5003;58358;50.936;0.246;2023-03-31T16:48:03;5;5;
64631;PMS5003;58358;50.936;0.246;2023-03-31T16:50:28;2;2;
64631;PMS5003;58358;50.936;0.246;2023-03-31T16:52:54;1;1;
64631;PMS5003;58358;50.936;0.246;2023-03-31T16:55:20;3;3;
64631;PMS5003;58358;50.936;0.246;2023-03-31T16:57:46;6;6;
64631;PMS5003;58358;50.936;0.246;2023-03-31T17:00:12;4;3;
64631;PMS5003;58358;50.936;0.246;2023-03-31T17:02:37;3;3;
64631;PMS5003;58358;50.936;0.246;2023-03-31T17:05:03;10;8;